»·PEaware :: N4657 KSAN-L26

N4657 :: KSAN-L26

FLIGHT INFORMATION

Flight Status: Arrived
Operator: Privately registered:
United States
More flights under this callsign
Pilot: Daniel P. (20187)
Aircraft: PILATUS PC-12 EAGLE
(PC12)
More flights by this aircraft type
Origin: KSAN San Diego Intl-Lindbergh
United States
Destination: L26 Hesperia
United States
More flights between these airports :: More routes between these airports
Route: +V186 PDZ V442 CAPTZ
File this flight plan on PilotEdge
Remarks: TAC Route V186
Altitude:
(Current/Filed)
90ft
Speed:
(Current/Filed)
200kts
Departed: 01-Oct-18 09:13 AM
Arrived: 01-Oct-18 09:50 AM
Distance/Time
Traveled:
99nm/0:37
Distance/Time
To Go:
Arrived

Flight Plot

Page will automatically refresh every two minutes.

Flight plan parsing failed; only flown route is shown


Map Options




Map Legend


Flown Route
Filed Route
Departure Airport
Arrival Airport
Navaid (VOR, NDB)
Fix

Horizontal Profiles

Position Reports

Time Latitude Longitude Heading Altitude Ground
Speed
01-Oct-18 08:51 32.734272 -117.185249 196 17ft 0kts
01-Oct-18 08:52 32.734271 -117.185249 196 17ft 0kts
01-Oct-18 08:53 32.734271 -117.185249 196 17ft 0kts
01-Oct-18 08:54 32.734271 -117.185249 196 17ft 0kts
01-Oct-18 08:55 32.734271 -117.185249 196 17ft 0kts
01-Oct-18 08:56 32.734271 -117.185249 196 17ft 0kts
01-Oct-18 08:57 32.734271 -117.185249 196 17ft 0kts
01-Oct-18 08:58 32.734271 -117.185249 196 17ft 0kts
01-Oct-18 08:59 32.734271 -117.185249 196 17ft 0kts
01-Oct-18 09:00 32.734271 -117.185249 196 17ft 0kts
01-Oct-18 09:01 32.734271 -117.185249 196 17ft 0kts
01-Oct-18 09:02 32.734271 -117.185249 196 17ft 0kts
01-Oct-18 09:03 32.734271 -117.185249 196 17ft 0kts
01-Oct-18 09:04 32.734271 -117.185249 196 17ft 0kts
01-Oct-18 09:05 32.733466 -117.184465 110 17ft 12kts
01-Oct-18 09:06 32.732303 -117.179717 107 19ft 14kts
01-Oct-18 09:07 32.731183 -117.175909 110 21ft 11kts
01-Oct-18 09:08 32.730896 -117.175455 138 21ft 0kts
01-Oct-18 09:09 32.730896 -117.175455 138 21ft 0kts
01-Oct-18 09:10 32.730896 -117.175455 138 21ft 0kts
01-Oct-18 09:11 32.730896 -117.175455 138 21ft 0kts
01-Oct-18 09:12 32.730896 -117.175455 138 21ft 0kts
01-Oct-18 09:13 32.730896 -117.175455 138 21ft 0kts
01-Oct-18 09:14 32.730256 -117.175985 285 20ft 15kts
01-Oct-18 09:15 32.736859 -117.205343 287 911ft 117kts
01-Oct-18 09:16 32.756262 -117.246505 301 2472ft 166kts
01-Oct-18 09:17 32.781806 -117.295238 301 4172ft 181kts
01-Oct-18 09:18 32.809702 -117.345748 301 5941ft 182kts
01-Oct-18 09:19 32.836205 -117.392298 301 7643ft 167kts
01-Oct-18 09:20 32.871511 -117.419312 27 8979ft 183kts
01-Oct-18 09:21 32.915593 -117.375339 41 9005ft 228kts
01-Oct-18 09:22 32.963370 -117.325299 41 9007ft 229kts
01-Oct-18 09:23 33.010505 -117.277204 41 9003ft 229kts
01-Oct-18 09:24 33.057903 -117.226930 41 9003ft 231kts
01-Oct-18 09:25 33.104011 -117.177902 41 9003ft 231kts
01-Oct-18 09:26 33.160151 -117.184904 343 8998ft 226kts
01-Oct-18 09:27 33.219953 -117.172171 14 9002ft 229kts
01-Oct-18 09:28 33.281021 -117.151311 14 9002ft 229kts
01-Oct-18 09:29 33.342988 -117.137544 357 9004ft 228kts
01-Oct-18 09:30 33.404765 -117.145837 346 9003ft 226kts
01-Oct-18 09:31 33.465465 -117.160808 347 9008ft 226kts
01-Oct-18 09:32 33.517186 -117.198356 322 8971ft 224kts
01-Oct-18 09:33 33.567551 -117.240266 323 8988ft 222kts
01-Oct-18 09:34 33.618213 -117.282009 323 9002ft 222kts
01-Oct-18 09:35 33.668829 -117.323737 323 9002ft 222kts
01-Oct-18 09:36 33.719427 -117.365507 323 9002ft 222kts
01-Oct-18 09:37 33.769658 -117.407029 323 8997ft 222kts
01-Oct-18 09:38 33.820311 -117.448965 323 8987ft 223kts
01-Oct-18 09:39 33.870132 -117.490273 323 8979ft 223kts
01-Oct-18 09:40 33.912698 -117.523813 343 8968ft 226kts
01-Oct-18 09:41 33.980128 -117.493327 28 8976ft 227kts
01-Oct-18 09:42 34.034812 -117.460414 28 8976ft 227kts
01-Oct-18 09:43 34.081321 -117.432454 28 8976ft 227kts
01-Oct-18 09:44 34.145289 -117.393955 28 8985ft 226kts
01-Oct-18 09:45 34.191814 -117.365781 26 8990ft 227kts
01-Oct-18 09:46 34.246777 -117.331560 27 8966ft 212kts
01-Oct-18 09:47 34.298932 -117.296466 27 7818ft 175kts
01-Oct-18 09:48 34.336563 -117.296228 345 6857ft 163kts
01-Oct-18 09:49 34.379220 -117.284760 26 5480ft 168kts
01-Oct-18 09:50 34.404750 -117.288692 224 4019ft 141kts
01-Oct-18 09:51 34.380194 -117.312844 218 3336ft 87kts
01-Oct-18 09:52 34.376160 -117.316325 34 3369ft 0kts
01-Oct-18 09:53 34.376160 -117.316325 34 3369ft 0kts
01-Oct-18 09:54 34.376160 -117.316325 34 3369ft 0kts
01-Oct-18 09:55 34.376160 -117.316325 34 3369ft 0kts
01-Oct-18 09:56 34.376160 -117.316325 34 3369ft 0kts
01-Oct-18 09:57 34.376160 -117.316325 34 3369ft 0kts
01-Oct-18 09:58 34.376160 -117.316325 34 3369ft 0kts
01-Oct-18 09:59 34.376160 -117.316325 34 3369ft 0kts
01-Oct-18 10:00 34.376160 -117.316325 34 3369ft 0kts
01-Oct-18 10:01 34.376160 -117.316325 34 3369ft 0kts
01-Oct-18 10:02 34.376160 -117.316325 34 3369ft 0kts

Navigation Log

Ident Type
Flight plan parsing failed, navigation log unavailable